Briefing drone pour Saint-pryve-saint-mesmin

Rechercher une autre localisation

Conditions de vol :


Nous sommes le : Jeudi 17 juin 2021
Il est 00:11 UTC (02:11 LT)

Lever de soleil : 03:27 UTC (05:27 LT)
Coucher de soleil : 20:19 UTC (22:19 LT)


Warning: min(): Array must contain at least one element in /homepages/6/d509196549/htdocs/briefdrone/includes/function/metar/metar.php on line 1265

Météo

L'essentiel des conditions de vol

VIGILANCE MÉTÉO FRANCE - Loiret (45)
Vigilance Orange : Orages
CARTE TEMSI
CARTES DES FRONTS
METAR de LFOJ
LFOJ 170000Z AUTO 28010KT 9999 -RA VCTS ///CB 22/18 Q1007

Date d'émission: 17/06/2021
Heure d'émission: 00:00 UTC
Vent: 280° pour 10 KT (19 km/h)
Visibilité horizontale: > 10 km
Température: 22 °C
Point de rosée: 18 °C
Humidité: 78%
Pression (QNH): 1007 hPa
Conditions: Faible pluie
TAF de LFOJ
AMD AMD LFOJ 162154Z 1621/1721 CNL

Conditions prévues :

Heure d'émission : Bulletin éffectué le 16 à 21:00 UTC
Prévision : Valide du 16 a 21:00 UTC au 17 a 21:00 UTC
Nuages : à 0ft (0 m)
WEBCAM POUR SAINT-PRYVE-SAINT-MESMIN

Réglementation

Voler en sécurité

CARTES AERONAUTIQUE 1/500.000
CARTES VAC (LFOJ)
SUP AIP




Chargement des AIP...
NOTAM (SAINT-PRYVE-SAINT-MESMIN + Terrain à proximité / FIR )




Chargement des NOTAMS...
CONTACT PREFECTURE 45


Avertissement : Les données mises à disposition sont indicatives. Oxygène Drone ne pourra être tenu responsable de dégâts causés aux biens et aux personnes.